Time;durP1;ratioP1;P1;durP2;ratioP2;P2;SDS_P1;SDS_P2;PMS_P1;PMS_P2;Temp;Humidity;BMP_temperature;BMP_pressure;BME280_temperature;BME280_humidity;BME280_pressure;Samples;Min_cycle;Max_cycle;Signal;HPM_P1;HPM_P2
2023/07/11 00:01:31;;;;;;;0.80;0.73;;;21.20;99.90;;;;;;4975460;28;20699;-89
2023/07/11 00:04:02;;;;;;;3.40;1.17;;;21.50;99.90;;;;;;4975769;28;20573;-89
2023/07/11 00:06:35;;;;;;;0.80;0.80;;;21.60;99.90;;;;;;4965499;28;20196;-88
2023/07/11 00:09:07;;;;;;;0.70;0.70;;;21.80;99.90;;;;;;4979023;28;20231;-87
2023/07/11 00:11:40;;;;;;;1.07;0.80;;;21.80;99.90;;;;;;4974172;28;20294;-89
2023/07/11 00:14:11;;;;;;;1.00;0.90;;;22.10;99.90;;;;;;4975037;28;20210;-87
2023/07/11 00:16:43;;;;;;;2.87;0.70;;;22.10;99.90;;;;;;4974796;28;20306;-88
2023/07/11 00:19:15;;;;;;;1.47;0.73;;;22.20;99.90;;;;;;4977866;28;20671;-89
2023/07/11 00:21:47;;;;;;;2.20;0.90;;;22.50;99.90;;;;;;4974291;28;20214;-89
2023/07/11 00:24:20;;;;;;;0.70;0.70;;;22.50;99.90;;;;;;4975327;28;20211;-91
2023/07/11 00:26:54;;;;;;;0.57;0.57;;;22.10;99.90;;;;;;4976108;28;20211;-90
2023/07/11 00:29:26;;;;;;;1.13;0.90;;;21.80;99.90;;;;;;4977506;28;20206;-90
2023/07/11 00:31:57;;;;;;;0.70;0.60;;;21.90;99.90;;;;;;4976883;28;20206;-90
2023/07/11 00:34:29;;;;;;;1.17;0.70;;;21.60;99.90;;;;;;4975198;28;20297;-90
2023/07/11 00:37:01;;;;;;;0.97;0.87;;;21.70;99.90;;;;;;4977718;28;20221;-89
2023/07/11 00:39:34;;;;;;;1.17;0.67;;;21.90;99.90;;;;;;4980708;28;20269;-95
2023/07/11 00:42:11;;;;;;;0.70;0.60;;;21.60;99.90;;;;;;4970897;28;20221;-95
2023/07/11 00:44:57;;;;;;;0.80;0.70;;;21.80;99.90;;;;;;4978646;28;20238;-96
2023/07/11 00:47:30;;;;;;;0.63;0.63;;;21.90;99.90;;;;;;4990422;28;20201;-96
2023/07/11 00:50:05;;;;;;;1.63;0.80;;;22.50;99.90;;;;;;4985921;28;20190;-95
2023/07/11 00:52:39;;;;;;;1.63;0.77;;;23.00;99.90;;;;;;4993162;28;20769;-96
2023/07/11 00:55:13;;;;;;;1.00;0.90;;;23.50;99.90;;;;;;4995895;28;20199;-96
2023/07/11 00:57:46;;;;;;;3.80;0.90;;;23.40;99.90;;;;;;4978367;28;20234;-93
2023/07/11 01:00:18;;;;;;;1.77;0.90;;;23.70;99.90;;;;;;4977523;28;20234;-91
2023/07/11 01:02:50;;;;;;;2.10;1.13;;;25.00;99.90;;;;;;4978977;28;20575;-95
2023/07/11 01:05:23;;;;;;;1.87;0.80;;;25.80;99.90;;;;;;4973118;28;20678;-95
2023/07/11 01:07:55;;;;;;;1.27;0.90;;;26.50;99.90;;;;;;4978975;28;20199;-94
2023/07/11 01:10:29;;;;;;;2.10;0.70;;;26.60;99.90;;;;;;4979102;28;20206;-88
2023/07/11 01:13:05;;;;;;;0.67;0.67;;;26.70;99.90;;;;;;4970892;28;20676;-84
2023/07/11 01:15:37;;;;;;;0.70;0.70;;;27.00;99.90;;;;;;4972072;28;20198;-84
2023/07/11 01:18:08;;;;;;;0.93;0.80;;;26.10;99.90;;;;;;4969241;28;20242;-84
2023/07/11 01:20:40;;;;;;;0.50;0.50;;;25.80;99.90;;;;;;4968185;28;20231;-85
2023/07/11 01:23:14;;;;;;;2.23;0.80;;;25.70;99.90;;;;;;4969074;28;20639;-86
2023/07/11 01:25:46;;;;;;;1.17;0.80;;;25.30;99.90;;;;;;4965435;28;20829;-87
2023/07/11 01:28:18;;;;;;;0.67;0.60;;;24.80;99.90;;;;;;4970088;28;20274;-88
2023/07/11 01:30:50;;;;;;;1.10;0.70;;;24.00;99.90;;;;;;4968087;28;20266;-88
2023/07/11 01:33:24;;;;;;;0.80;0.80;;;23.60;99.90;;;;;;4973602;28;21017;-87
2023/07/11 01:35:56;;;;;;;1.00;0.60;;;22.90;99.90;;;;;;4972615;28;20206;-88
2023/07/11 01:38:29;;;;;;;0.80;0.80;;;22.20;99.90;;;;;;4974885;28;20278;-88
2023/07/11 01:41:01;;;;;;;0.60;0.60;;;21.80;99.90;;;;;;4973775;28;20243;-88
2023/07/11 01:43:35;;;;;;;0.83;0.80;;;21.50;99.90;;;;;;4972461;28;20282;-88
2023/07/11 01:46:07;;;;;;;0.63;0.63;;;21.30;99.90;;;;;;4972711;28;20301;-89
2023/07/11 01:48:40;;;;;;;1.20;0.80;;;21.30;99.90;;;;;;4973805;28;20203;-88
2023/07/11 01:51:11;;;;;;;1.00;0.70;;;21.30;99.90;;;;;;4972780;28;20291;-89
2023/07/11 01:53:45;;;;;;;1.13;0.83;;;21.30;99.90;;;;;;4971489;28;20242;-85
2023/07/11 01:56:16;;;;;;;1.23;0.60;;;21.30;99.90;;;;;;4967169;28;20210;-86
2023/07/11 01:58:48;;;;;;;0.70;0.70;;;21.10;99.90;;;;;;4973111;28;20207;-90
2023/07/11 02:01:19;;;;;;;0.60;0.60;;;21.00;99.90;;;;;;4976782;28;20206;-90
2023/07/11 02:03:52;;;;;;;0.80;0.80;;;20.90;99.90;;;;;;4980882;28;20553;-90
2023/07/11 02:06:23;;;;;;;0.73;0.70;;;20.60;99.90;;;;;;4975345;28;20248;-82
2023/07/11 02:08:56;;;;;;;0.77;0.60;;;20.40;99.90;;;;;;4968327;28;20505;-85
2023/07/11 02:11:27;;;;;;;1.43;0.70;;;20.40;99.90;;;;;;4971494;28;20210;-84
2023/07/11 02:13:58;;;;;;;0.73;0.63;;;20.50;99.90;;;;;;4973855;28;20266;-85
2023/07/11 02:16:29;;;;;;;2.13;0.73;;;20.50;99.90;;;;;;4965547;28;20261;-84
2023/07/11 02:19:00;;;;;;;0.73;0.70;;;20.40;99.90;;;;;;4964371;28;20299;-86
2023/07/11 02:21:31;;;;;;;0.97;0.73;;;20.40;99.90;;;;;;4966949;28;20211;-85
2023/07/11 02:24:04;;;;;;;0.70;0.60;;;20.60;99.90;;;;;;4963386;28;20222;-84
2023/07/11 02:26:36;;;;;;;3.07;0.50;;;20.90;99.90;;;;;;4967195;28;20258;-84
2023/07/11 02:29:09;;;;;;;3.63;0.80;;;21.00;99.90;;;;;;4966428;28;20207;-84
2023/07/11 02:31:41;;;;;;;1.33;0.70;;;21.10;99.90;;;;;;4966868;28;20218;-85
2023/07/11 02:34:12;;;;;;;1.37;0.80;;;21.10;99.90;;;;;;4970710;28;20331;-86
2023/07/11 02:36:43;;;;;;;1.13;0.80;;;21.00;99.90;;;;;;4965229;28;20790;-85
2023/07/11 02:39:16;;;;;;;1.20;0.70;;;21.00;99.90;;;;;;4967506;28;20310;-85
2023/07/11 02:41:47;;;;;;;1.63;0.80;;;21.00;99.90;;;;;;4968482;28;20210;-85
2023/07/11 02:44:18;;;;;;;1.03;0.93;;;21.20;99.90;;;;;;4969588;28;20221;-84
2023/07/11 02:46:50;;;;;;;0.80;0.80;;;21.20;99.90;;;;;;4981602;28;20210;-85
2023/07/11 02:49:21;;;;;;;2.27;0.80;;;21.20;99.90;;;;;;4970159;28;20207;-84
2023/07/11 02:51:52;;;;;;;0.80;0.80;;;21.00;99.90;;;;;;4975276;28;20230;-86
2023/07/11 02:54:25;;;;;;;0.80;0.80;;;21.10;99.90;;;;;;4971956;28;20211;-85
2023/07/11 02:56:56;;;;;;;1.30;0.83;;;21.00;99.90;;;;;;4966145;28;20196;-85
2023/07/11 02:59:27;;;;;;;0.60;0.60;;;20.70;99.90;;;;;;4970382;28;20213;-85
2023/07/11 03:01:59;;;;;;;1.17;0.70;;;20.80;99.90;;;;;;4968137;28;20199;-86
2023/07/11 03:04:32;;;;;;;1.30;1.03;;;20.60;99.90;;;;;;4966822;28;20231;-85
2023/07/11 03:07:04;;;;;;;1.10;1.00;;;20.50;99.90;;;;;;4971193;28;20318;-86
2023/07/11 03:09:38;;;;;;;1.43;0.87;;;20.60;99.90;;;;;;4984910;28;20207;-84
2023/07/11 03:12:11;;;;;;;4.90;1.20;;;20.60;99.90;;;;;;4965547;28;20217;-86
2023/07/11 03:14:42;;;;;;;11.13;1.20;;;20.60;99.90;;;;;;4969736;28;20302;-85
2023/07/11 03:17:14;;;;;;;0.87;0.80;;;20.50;99.90;;;;;;4972220;28;20219;-84
2023/07/11 03:19:45;;;;;;;3.90;1.10;;;20.50;99.90;;;;;;4967725;28;20199;-84
2023/07/11 03:22:17;;;;;;;1.90;1.20;;;20.40;99.90;;;;;;4968274;28;20207;-85
2023/07/11 03:24:50;;;;;;;0.87;0.87;;;20.40;99.90;;;;;;4972034;28;20218;-86
2023/07/11 03:27:21;;;;;;;0.90;0.87;;;20.20;99.90;;;;;;4967471;28;20206;-85
2023/07/11 03:29:53;;;;;;;3.67;1.30;;;20.10;99.90;;;;;;4965653;28;20920;-85
2023/07/11 03:32:25;;;;;;;1.00;0.90;;;20.10;99.90;;;;;;4969815;28;20203;-86
2023/07/11 03:34:58;;;;;;;0.83;0.80;;;20.00;99.90;;;;;;4974031;28;20207;-85
2023/07/11 03:37:33;;;;;;;3.80;0.70;;;19.90;99.90;;;;;;4973769;28;20206;-85
2023/07/11 03:40:08;;;;;;;6.77;2.83;;;19.90;99.90;;;;;;4969623;28;20231;-85
2023/07/11 03:42:40;;;;;;;1.93;1.17;;;19.90;99.90;;;;;;4968988;28;20282;-85
2023/07/11 03:45:12;;;;;;;0.90;0.90;;;19.70;99.90;;;;;;4970922;28;20211;-84
2023/07/11 03:47:42;;;;;;;1.67;1.00;;;19.60;99.90;;;;;;4966897;28;20203;-85
2023/07/11 03:50:13;;;;;;;1.10;0.97;;;19.60;99.90;;;;;;4970673;28;20357;-84
2023/07/11 03:52:44;;;;;;;1.20;1.07;;;19.50;99.90;;;;;;4960831;28;20302;-85
2023/07/11 03:55:18;;;;;;;1.60;1.27;;;19.60;99.90;;;;;;4959776;28;20211;-84
2023/07/11 03:57:49;;;;;;;2.20;1.80;;;19.50;99.90;;;;;;4972649;28;20265;-85
2023/07/11 04:00:20;;;;;;;10.20;2.93;;;19.40;99.90;;;;;;4972973;28;20234;-85
2023/07/11 04:02:51;;;;;;;1.93;1.20;;;19.40;99.90;;;;;;4960332;28;20200;-83
2023/07/11 04:05:22;;;;;;;1.43;1.10;;;19.40;99.90;;;;;;4962416;28;20211;-83
2023/07/11 04:07:53;;;;;;;1.30;1.00;;;19.30;99.90;;;;;;4966251;28;20207;-82
2023/07/11 04:10:26;;;;;;;1.13;0.77;;;19.30;99.90;;;;;;4963283;28;20208;-81
2023/07/11 04:12:57;;;;;;;1.13;0.80;;;19.20;99.90;;;;;;4966141;28;20207;-83
2023/07/11 04:15:27;;;;;;;2.73;1.10;;;19.20;99.90;;;;;;4964483;28;20207;-83
2023/07/11 04:17:58;;;;;;;1.53;0.90;;;19.20;99.90;;;;;;4965858;28;20211;-83
2023/07/11 04:20:29;;;;;;;1.83;0.70;;;19.10;99.90;;;;;;4967216;28;20253;-83
2023/07/11 04:23:00;;;;;;;1.13;0.87;;;19.10;99.90;;;;;;4961983;28;20199;-83
2023/07/11 04:25:33;;;;;;;1.93;0.80;;;19.10;99.90;;;;;;4971052;28;20203;-84
2023/07/11 04:28:06;;;;;;;2.27;1.03;;;19.00;99.90;;;;;;4967430;28;21038;-83
2023/07/11 04:30:37;;;;;;;1.23;0.93;;;19.00;99.90;;;;;;4967137;28;20224;-85
2023/07/11 04:33:08;;;;;;;1.10;0.87;;;19.00;99.90;;;;;;4969218;28;20211;-83
2023/07/11 04:35:39;;;;;;;1.10;0.90;;;18.90;99.90;;;;;;4969976;28;20215;-83
2023/07/11 04:38:11;;;;;;;1.20;0.97;;;18.90;99.90;;;;;;4966555;28;20243;-83
2023/07/11 04:40:43;;;;;;;1.97;0.90;;;18.90;99.90;;;;;;4968924;28;20227;-83
2023/07/11 04:43:14;;;;;;;0.80;0.77;;;18.80;99.90;;;;;;4966022;28;20209;-82
2023/07/11 04:45:45;;;;;;;1.37;1.10;;;18.80;99.90;;;;;;4962786;28;20211;-83
2023/07/11 04:48:16;;;;;;;1.17;0.90;;;18.80;99.90;;;;;;4960019;28;20217;-83
2023/07/11 04:50:47;;;;;;;1.00;0.93;;;18.80;99.90;;;;;;4956129;28;20233;-84
2023/07/11 04:53:18;;;;;;;1.53;1.00;;;18.80;99.90;;;;;;4964799;28;20204;-83
2023/07/11 04:55:57;;;;;;;1.80;1.10;;;18.80;99.90;;;;;;4964302;28;20211;-84
2023/07/11 04:58:30;;;;;;;1.37;1.03;;;18.70;99.90;;;;;;4969240;28;20225;-83
2023/07/11 05:01:06;;;;;;;1.00;0.90;;;18.70;99.90;;;;;;4961709;28;20758;-83
2023/07/11 05:03:38;;;;;;;2.83;0.97;;;18.60;99.90;;;;;;4964154;28;20773;-82
2023/07/11 05:06:10;;;;;;;0.93;0.80;;;18.60;99.90;;;;;;4950805;28;20740;-83
2023/07/11 05:08:42;;;;;;;0.90;0.90;;;18.60;99.90;;;;;;4954820;28;20207;-83
2023/07/11 05:11:17;;;;;;;1.13;0.97;;;18.50;99.90;;;;;;4961806;28;22030;-83
2023/07/11 05:13:51;;;;;;;2.00;0.90;;;18.50;99.90;;;;;;4960139;28;20206;-83
2023/07/11 05:16:25;;;;;;;2.03;1.10;;;18.50;99.90;;;;;;4967218;28;20238;-83
2023/07/11 05:18:58;;;;;;;1.40;0.90;;;18.40;99.90;;;;;;4964462;28;20306;-83
2023/07/11 05:21:29;;;;;;;1.00;0.90;;;18.40;99.90;;;;;;4971033;28;20307;-82
2023/07/11 05:24:01;;;;;;;1.87;1.00;;;18.40;99.90;;;;;;4962583;28;20211;-84
2023/07/11 05:26:34;;;;;;;1.53;0.80;;;18.30;99.90;;;;;;4970661;28;20209;-84
2023/07/11 05:29:06;;;;;;;1.10;1.00;;;18.30;99.90;;;;;;4966481;28;20211;-84
2023/07/11 05:31:38;;;;;;;0.90;0.70;;;18.20;99.90;;;;;;4968295;28;20229;-84
2023/07/11 05:34:11;;;;;;;1.33;1.13;;;18.20;99.90;;;;;;4961832;28;20215;-84
2023/07/11 05:36:42;;;;;;;1.10;0.93;;;18.10;99.90;;;;;;4975495;28;20206;-84
2023/07/11 05:39:16;;;;;;;1.07;0.93;;;18.10;99.90;;;;;;4962170;28;20214;-83
2023/07/11 05:41:52;;;;;;;1.10;0.70;;;18.00;99.90;;;;;;4964721;28;20690;-83
2023/07/11 05:44:23;;;;;;;1.17;0.90;;;18.00;99.90;;;;;;4968071;28;20570;-82
2023/07/11 05:46:54;;;;;;;1.73;0.80;;;17.90;99.90;;;;;;4977664;28;20283;-83
2023/07/11 05:49:25;;;;;;;2.17;0.80;;;17.90;99.90;;;;;;4966711;28;20210;-82
2023/07/11 05:51:55;;;;;;;0.80;0.70;;;17.80;99.90;;;;;;4967454;28;20214;-85
2023/07/11 05:54:26;;;;;;;2.47;1.00;;;17.70;99.90;;;;;;4973338;28;20655;-83
2023/07/11 05:56:59;;;;;;;0.70;0.70;;;17.60;99.90;;;;;;4969838;28;20198;-82
2023/07/11 05:59:29;;;;;;;1.03;0.93;;;17.60;99.90;;;;;;4974910;28;20627;-82
2023/07/11 06:02:00;;;;;;;1.80;0.93;;;17.60;99.90;;;;;;4967713;28;20226;-83
2023/07/11 06:04:31;;;;;;;1.00;0.77;;;17.50;99.90;;;;;;4978980;28;20662;-82
2023/07/11 06:07:03;;;;;;;0.80;0.80;;;17.50;99.90;;;;;;4973187;28;20214;-84
2023/07/11 06:09:35;;;;;;;0.90;0.80;;;17.40;99.90;;;;;;4978401;28;20301;-84
2023/07/11 06:12:10;;;;;;;1.27;1.00;;;17.40;99.90;;;;;;4973893;28;20215;-84
2023/07/11 06:14:42;;;;;;;1.53;0.70;;;17.30;99.90;;;;;;4973516;28;20274;-84
2023/07/11 06:17:14;;;;;;;1.40;0.70;;;17.30;99.90;;;;;;4988764;28;20203;-85
2023/07/11 06:19:46;;;;;;;0.80;0.67;;;17.30;99.90;;;;;;4987013;28;20197;-84
2023/07/11 06:22:17;;;;;;;1.80;0.60;;;17.20;99.90;;;;;;4974427;28;20235;-84
2023/07/11 06:24:49;;;;;;;1.00;0.80;;;17.20;99.90;;;;;;4971098;28;20268;-84
2023/07/11 06:27:22;;;;;;;0.60;0.60;;;17.10;99.90;;;;;;4969475;28;20211;-84
2023/07/11 06:29:53;;;;;;;0.57;0.57;;;17.10;99.90;;;;;;4972877;28;20660;-84
2023/07/11 06:32:24;;;;;;;1.50;0.60;;;17.00;99.90;;;;;;4974482;28;20211;-84
2023/07/11 06:34:56;;;;;;;0.93;0.70;;;17.00;99.90;;;;;;4971367;28;20214;-83
2023/07/11 06:37:27;;;;;;;1.50;0.70;;;17.00;99.90;;;;;;4975345;28;20596;-85
2023/07/11 06:39:58;;;;;;;1.90;0.60;;;16.90;99.90;;;;;;4971472;28;20222;-84
2023/07/11 06:42:31;;;;;;;1.03;0.70;;;16.90;99.90;;;;;;4965959;28;20235;-87
2023/07/11 06:45:03;;;;;;;0.93;0.67;;;16.90;99.90;;;;;;4962283;28;20209;-86
2023/07/11 06:47:35;;;;;;;0.90;0.80;;;16.80;99.90;;;;;;4972413;28;20204;-85
2023/07/11 06:50:08;;;;;;;1.60;0.70;;;16.70;99.90;;;;;;4958339;28;20261;-85
2023/07/11 06:52:39;;;;;;;1.63;0.60;;;16.70;99.90;;;;;;4962792;28;20289;-83
2023/07/11 06:55:12;;;;;;;0.80;0.60;;;16.70;99.90;;;;;;4965754;28;20207;-83
2023/07/11 06:57:45;;;;;;;0.87;0.60;;;16.60;99.90;;;;;;4968938;28;20211;-85
2023/07/11 07:00:19;;;;;;;0.63;0.63;;;16.60;99.90;;;;;;4964383;28;20854;-85
2023/07/11 07:02:51;;;;;;;1.03;0.80;;;16.60;99.90;;;;;;4968022;28;20226;-88
2023/07/11 07:05:22;;;;;;;0.73;0.50;;;16.60;99.90;;;;;;4971236;28;20203;-84
2023/07/11 07:07:53;;;;;;;0.97;0.70;;;16.50;99.90;;;;;;4969907;28;20206;-84
2023/07/11 07:10:42;;;;;;;0.80;0.50;;;16.50;99.90;;;;;;4964478;28;20293;-86
2023/07/11 07:13:15;;;;;;;0.50;0.50;;;16.50;99.90;;;;;;4962003;28;20208;-84
2023/07/11 07:15:49;;;;;;;0.77;0.63;;;16.50;99.90;;;;;;4966785;28;20573;-83
2023/07/11 07:18:20;;;;;;;1.10;0.60;;;16.40;99.90;;;;;;4956220;28;20206;-85
2023/07/11 07:20:53;;;;;;;1.10;0.60;;;16.30;99.90;;;;;;4970098;28;20211;-84
2023/07/11 07:23:28;;;;;;;1.73;0.50;;;16.30;99.90;;;;;;4963598;28;20235;-84
2023/07/11 07:26:00;;;;;;;0.97;0.50;;;16.30;99.90;;;;;;4968126;28;20273;-85
2023/07/11 07:28:36;;;;;;;0.80;0.50;;;16.30;99.90;;;;;;4972118;28;20227;-84
2023/07/11 07:31:07;;;;;;;0.50;0.50;;;16.20;99.90;;;;;;4963041;28;20262;-83
2023/07/11 07:33:38;;;;;;;0.57;0.50;;;16.20;99.90;;;;;;4968436;28;20238;-84
2023/07/11 07:36:12;;;;;;;1.23;0.50;;;16.20;99.90;;;;;;4969167;28;20219;-84
2023/07/11 07:38:43;;;;;;;0.70;0.50;;;16.20;99.90;;;;;;4968302;28;20274;-85
2023/07/11 07:41:14;;;;;;;0.90;0.60;;;16.10;99.90;;;;;;4969727;28;20706;-86
2023/07/11 07:43:48;;;;;;;1.93;0.50;;;16.10;99.90;;;;;;4969207;28;20238;-84
2023/07/11 07:46:20;;;;;;;0.97;0.57;;;16.00;99.90;;;;;;4969304;28;20215;-85
2023/07/11 07:48:51;;;;;;;0.50;0.40;;;16.00;99.90;;;;;;4965753;28;20214;-86
2023/07/11 07:51:23;;;;;;;0.80;0.50;;;16.10;99.90;;;;;;4966597;28;20267;-85
2023/07/11 07:53:54;;;;;;;0.73;0.50;;;16.10;99.90;;;;;;4969737;28;20199;-84
2023/07/11 07:56:28;;;;;;;2.10;0.60;;;16.10;99.90;;;;;;4970073;28;20226;-85
2023/07/11 07:59:01;;;;;;;1.70;0.50;;;16.10;99.90;;;;;;4968572;28;20207;-86
2023/07/11 08:01:33;;;;;;;1.33;0.60;;;16.00;99.90;;;;;;4964085;28;20770;-85
2023/07/11 08:04:04;;;;;;;1.23;0.67;;;16.00;99.90;;;;;;4963817;28;20672;-86
2023/07/11 08:06:37;;;;;;;0.77;0.70;;;16.00;99.90;;;;;;4964703;28;20199;-85
2023/07/11 08:09:08;;;;;;;1.27;0.67;;;15.90;99.90;;;;;;4967912;28;20218;-85
2023/07/11 08:11:39;;;;;;;1.17;0.77;;;15.90;99.90;;;;;;4967980;28;20214;-84
2023/07/11 08:14:12;;;;;;;1.73;0.73;;;15.90;99.90;;;;;;4966181;28;20215;-84
2023/07/11 08:16:43;;;;;;;1.37;0.70;;;15.80;99.90;;;;;;4967124;28;20209;-85
2023/07/11 08:19:15;;;;;;;3.03;0.80;;;15.80;99.90;;;;;;4967654;28;20203;-83
2023/07/11 08:21:46;;;;;;;1.70;0.90;;;15.80;99.90;;;;;;4965289;28;20203;-84
2023/07/11 08:24:17;;;;;;;1.33;0.80;;;15.70;99.90;;;;;;4966614;28;20234;-84
2023/07/11 08:26:48;;;;;;;0.90;0.70;;;15.70;99.90;;;;;;4965200;28;20644;-83
2023/07/11 08:29:21;;;;;;;1.00;0.73;;;15.70;99.90;;;;;;4967472;28;20234;-82
2023/07/11 08:31:59;;;;;;;2.40;0.70;;;15.60;99.90;;;;;;4966206;28;20211;-84
2023/07/11 08:34:31;;;;;;;2.30;0.77;;;15.70;99.90;;;;;;4961027;28;20215;-83
2023/07/11 08:37:03;;;;;;;0.90;0.80;;;15.70;99.90;;;;;;4966575;28;20211;-84
2023/07/11 08:39:35;;;;;;;1.97;0.73;;;15.60;99.90;;;;;;4964659;28;20207;-84
2023/07/11 08:42:14;;;;;;;1.80;0.73;;;15.60;99.90;;;;;;4969691;28;20211;-85
2023/07/11 08:44:51;;;;;;;1.07;0.70;;;15.60;99.90;;;;;;4968241;28;20239;-85
2023/07/11 08:47:28;;;;;;;0.60;0.60;;;15.60;99.90;;;;;;4969868;28;20238;-85
2023/07/11 08:50:03;;;;;;;0.60;0.60;;;15.60;99.90;;;;;;4981399;28;20234;-84
2023/07/11 08:52:36;;;;;;;0.83;0.70;;;15.60;99.90;;;;;;4970131;28;20231;-85
2023/07/11 08:55:14;;;;;;;0.70;0.60;;;15.70;99.90;;;;;;4969472;28;20218;-84
2023/07/11 08:57:50;;;;;;;2.40;0.90;;;15.60;99.90;;;;;;4968554;28;20207;-85
2023/07/11 09:00:24;;;;;;;1.80;0.80;;;15.70;99.90;;;;;;4960655;28;20211;-85
2023/07/11 09:02:58;;;;;;;1.33;0.70;;;15.70;99.90;;;;;;4968461;28;20225;-84
2023/07/11 09:05:41;;;;;;;1.57;0.80;;;15.70;99.90;;;;;;4962950;28;20211;-84
2023/07/11 09:08:17;;;;;;;1.50;0.90;;;15.70;99.90;;;;;;4964775;28;20286;-85
2023/07/11 09:11:00;;;;;;;1.00;0.60;;;15.80;99.90;;;;;;4960034;28;20200;-86
2023/07/11 09:13:58;;;;;;;0.50;0.50;;;15.80;99.90;;;;;;4962509;28;20204;-83
2023/07/11 09:16:42;;;;;;;1.50;0.87;;;15.80;99.90;;;;;;4959845;28;20203;-85
2023/07/11 09:19:27;;;;;;;1.53;0.90;;;15.80;99.90;;;;;;4963730;28;20222;-83
2023/07/11 09:22:06;;;;;;;1.30;0.70;;;15.80;99.90;;;;;;4967222;28;20293;-84
2023/07/11 09:24:44;;;;;;;1.13;0.73;;;15.80;99.90;;;;;;4965594;28;20238;-84
2023/07/11 09:27:23;;;;;;;0.87;0.63;;;15.80;99.90;;;;;;4967987;28;20206;-82
2023/07/11 09:29:56;;;;;;;1.63;0.70;;;15.70;99.90;;;;;;4961708;28;20203;-84
2023/07/11 09:32:35;;;;;;;1.27;0.70;;;15.70;99.90;;;;;;4963148;28;20215;-84
2023/07/11 09:35:25;;;;;;;1.10;0.80;;;15.80;99.90;;;;;;4964681;28;20321;-84
2023/07/11 09:38:01;;;;;;;0.90;0.60;;;15.70;99.90;;;;;;4966793;28;20218;-83
2023/07/11 09:40:37;;;;;;;1.00;0.60;;;15.70;99.90;;;;;;4964068;28;20864;-83
2023/07/11 09:43:12;;;;;;;1.47;0.80;;;15.60;99.90;;;;;;4966743;28;20215;-84
2023/07/11 09:45:46;;;;;;;2.13;0.80;;;15.70;99.90;;;;;;4962523;28;20206;-84
2023/07/11 09:48:24;;;;;;;0.67;0.60;;;15.70;99.90;;;;;;4968169;28;20227;-86
2023/07/11 09:51:11;;;;;;;1.00;0.67;;;15.60;99.90;;;;;;4966456;28;20256;-84
2023/07/11 09:53:45;;;;;;;1.13;0.70;;;15.60;99.90;;;;;;4968952;28;20206;-85
2023/07/11 09:56:18;;;;;;;0.80;0.50;;;15.60;99.90;;;;;;4965528;28;20211;-84
2023/07/11 09:58:52;;;;;;;1.00;0.60;;;15.70;99.90;;;;;;4963130;28;20285;-84
2023/07/11 10:01:29;;;;;;;0.87;0.57;;;15.70;99.90;;;;;;4964539;28;20239;-84
2023/07/11 10:04:07;;;;;;;0.97;0.60;;;15.70;99.90;;;;;;4959530;28;20230;-85
2023/07/11 10:06:41;;;;;;;3.10;0.70;;;15.70;99.90;;;;;;4967429;28;20294;-85
2023/07/11 10:09:24;;;;;;;0.50;0.50;;;15.70;99.90;;;;;;4962729;28;20207;-86
2023/07/11 10:11:58;;;;;;;1.20;0.77;;;15.60;99.90;;;;;;4965714;28;20203;-83
2023/07/11 10:14:33;;;;;;;0.60;0.50;;;15.70;99.90;;;;;;4967062;28;20291;-84
2023/07/11 10:17:19;;;;;;;0.47;0.40;;;15.60;99.90;;;;;;4963231;28;20701;-84
2023/07/11 10:19:56;;;;;;;1.00;0.70;;;15.60;99.90;;;;;;4967067;28;20291;-85
2023/07/11 10:22:50;;;;;;;0.50;0.50;;;15.60;99.90;;;;;;4963654;28;20208;-84
2023/07/11 10:25:24;;;;;;;0.50;0.50;;;15.50;99.90;;;;;;4969515;28;20718;-83
2023/07/11 10:28:01;;;;;;;0.57;0.57;;;15.60;99.90;;;;;;4971077;28;20199;-84
2023/07/11 10:30:35;;;;;;;0.97;0.70;;;15.60;99.90;;;;;;4965552;28;20209;-83
2023/07/11 10:33:11;;;;;;;1.40;0.73;;;15.60;99.90;;;;;;4969841;28;20238;-83
2023/07/11 10:35:55;;;;;;;1.30;0.47;;;15.70;99.90;;;;;;4969194;28;20626;-84
2023/07/11 10:38:32;;;;;;;0.70;0.50;;;15.70;99.90;;;;;;4971012;28;20213;-84
2023/07/11 10:41:05;;;;;;;1.07;0.50;;;15.60;99.90;;;;;;4969641;28;20203;-85
2023/07/11 10:43:39;;;;;;;1.13;0.70;;;15.60;99.90;;;;;;4971300;28;20218;-82
2023/07/11 10:46:18;;;;;;;4.00;0.53;;;15.60;99.90;;;;;;4961033;28;20211;-84
2023/07/11 10:48:52;;;;;;;0.50;0.47;;;15.60;99.90;;;;;;4972089;28;20253;-84
2023/07/11 10:51:30;;;;;;;0.53;0.53;;;15.60;99.90;;;;;;4976491;28;20235;-85
2023/07/11 10:54:05;;;;;;;0.67;0.40;;;15.60;99.90;;;;;;4971641;28;20211;-85
2023/07/11 10:56:38;;;;;;;0.73;0.50;;;15.70;99.90;;;;;;4981952;28;20198;-85
2023/07/11 10:59:14;;;;;;;0.57;0.57;;;15.60;99.90;;;;;;4975820;28;20223;-86
2023/07/11 11:01:53;;;;;;;0.97;0.50;;;15.60;99.90;;;;;;4969760;28;20705;-85
2023/07/11 11:04:45;;;;;;;0.50;0.47;;;15.50;99.90;;;;;;4969208;28;20224;-85
2023/07/11 11:07:25;;;;;;;0.87;0.60;;;15.50;99.90;;;;;;4970939;28;20242;-84
2023/07/11 11:10:04;;;;;;;0.50;0.50;;;15.50;99.90;;;;;;4970149;28;20198;-85
2023/07/11 11:12:43;;;;;;;1.47;0.50;;;15.50;99.90;;;;;;4970999;28;20283;-84
2023/07/11 11:15:37;;;;;;;0.40;0.40;;;15.40;99.90;;;;;;4964196;28;20218;-85
2023/07/11 11:18:25;;;;;;;0.37;0.37;;;15.50;99.90;;;;;;4969936;28;20222;-84
2023/07/11 11:21:07;;;;;;;1.03;0.50;;;15.50;99.90;;;;;;4968319;28;20211;-83
2023/07/11 11:24:07;;;;;;;0.60;0.60;;;15.50;99.90;;;;;;4969407;28;20199;-85
2023/07/11 11:26:45;;;;;;;2.90;0.60;;;15.40;99.90;;;;;;4962499;28;20286;-84
2023/07/11 11:29:24;;;;;;;0.50;0.50;;;15.40;99.90;;;;;;4966045;28;20318;-85
2023/07/11 11:32:03;;;;;;;0.63;0.50;;;15.40;99.90;;;;;;4965675;28;20294;-84
2023/07/11 11:34:49;;;;;;;1.77;0.70;;;15.30;99.90;;;;;;4964609;28;20222;-83
2023/07/11 11:38:22;;;;;;;0.90;0.70;;;15.20;99.90;;;;;;4967376;28;20202;-84
2023/07/11 11:41:01;;;;;;;0.50;0.50;;;15.20;99.90;;;;;;4964414;28;20291;-83
2023/07/11 11:43:33;;;;;;;1.87;0.80;;;15.20;99.90;;;;;;4971632;28;20215;-84
2023/07/11 11:46:25;;;;;;;1.40;0.60;;;15.10;99.90;;;;;;4964624;28;20281;-85
2023/07/11 11:49:03;;;;;;;0.97;0.57;;;15.20;99.90;;;;;;4969079;28;20207;-84
2023/07/11 11:51:55;;;;;;;0.63;0.63;;;15.20;99.90;;;;;;4974565;28;20210;-84
2023/07/11 11:54:27;;;;;;;0.77;0.50;;;15.20;99.90;;;;;;4989574;28;20192;-83
2023/07/11 11:57:04;;;;;;;0.90;0.50;;;15.20;99.90;;;;;;4991417;28;20179;-86
2023/07/11 11:59:35;;;;;;;1.00;0.70;;;15.10;99.90;;;;;;4990947;28;20417;-85
2023/07/11 12:02:14;;;;;;;0.70;0.70;;;15.10;99.90;;;;;;4971344;28;20218;-85
2023/07/11 12:05:04;;;;;;;0.67;0.67;;;15.00;99.90;;;;;;4974002;28;20321;-84
2023/07/11 12:07:38;;;;;;;0.53;0.53;;;14.90;99.90;;;;;;4972578;28;20648;-86
2023/07/11 12:10:19;;;;;;;0.67;0.63;;;15.00;99.90;;;;;;4968514;28;20565;-84
2023/07/11 12:13:20;;;;;;;0.93;0.50;;;14.90;99.90;;;;;;4969124;28;20248;-85
2023/07/11 12:15:55;;;;;;;0.60;0.60;;;14.90;99.90;;;;;;4962785;28;20202;-84
2023/07/11 12:18:46;;;;;;;1.40;0.80;;;14.80;99.90;;;;;;4968924;28;20218;-84
2023/07/11 12:21:45;;;;;;;1.20;0.77;;;14.80;99.90;;;;;;4963476;28;20582;-86
2023/07/11 12:24:25;;;;;;;0.83;0.67;;;14.80;99.90;;;;;;4968096;28;20674;-84
2023/07/11 12:27:10;;;;;;;2.30;0.60;;;14.60;99.90;;;;;;4966574;28;20703;-85
2023/07/11 12:29:51;;;;;;;1.13;0.60;;;14.50;99.90;;;;;;4963569;28;20216;-85
2023/07/11 12:32:48;;;;;;;0.80;0.80;;;14.50;99.90;;;;;;4967980;28;20207;-84
2023/07/11 12:35:24;;;;;;;1.30;0.80;;;14.50;99.90;;;;;;4962160;28;20199;-83
2023/07/11 12:38:08;;;;;;;1.60;0.90;;;14.50;99.90;;;;;;4964959;28;20211;-84
2023/07/11 12:40:46;;;;;;;0.73;0.53;;;14.50;99.90;;;;;;4965299;28;20199;-83
2023/07/11 12:43:23;;;;;;;2.03;0.80;;;14.50;99.90;;;;;;4958903;28;20196;-84
2023/07/11 12:45:58;;;;;;;0.60;0.60;;;14.50;99.90;;;;;;4964259;28;20242;-84
2023/07/11 12:48:34;;;;;;;1.17;0.70;;;14.40;99.90;;;;;;4969507;28;20251;-84
2023/07/11 12:51:07;;;;;;;2.30;0.60;;;14.40;99.90;;;;;;4964360;28;20243;-83
2023/07/11 12:53:40;;;;;;;0.93;0.60;;;14.50;99.90;;;;;;4962253;28;20748;-84
2023/07/11 12:56:15;;;;;;;0.83;0.80;;;14.50;99.90;;;;;;4964052;28;20217;-84
2023/07/11 12:58:47;;;;;;;1.80;0.60;;;14.50;99.90;;;;;;4964179;28;20553;-84
2023/07/11 13:01:19;;;;;;;0.67;0.60;;;14.50;99.90;;;;;;4969174;28;20202;-84
2023/07/11 13:03:52;;;;;;;0.60;0.60;;;14.50;99.90;;;;;;4989460;28;20195;-84
2023/07/11 13:06:29;;;;;;;0.60;0.57;;;14.50;99.90;;;;;;4977589;28;20237;-85
2023/07/11 13:09:01;;;;;;;1.40;0.70;;;14.50;99.90;;;;;;4966088;28;20211;-84
2023/07/11 13:11:34;;;;;;;0.80;0.80;;;14.60;99.90;;;;;;4965337;28;20293;-84
2023/07/11 13:14:11;;;;;;;1.47;0.60;;;14.60;99.90;;;;;;4969026;28;20683;-84
2023/07/11 13:16:44;;;;;;;1.87;0.60;;;14.70;99.90;;;;;;4968691;28;20831;-86
2023/07/11 13:19:24;;;;;;;2.40;0.70;;;14.70;99.90;;;;;;4961151;28;20207;-84
2023/07/11 13:21:55;;;;;;;0.67;0.67;;;14.50;99.90;;;;;;4964587;28;20613;-84
2023/07/11 13:24:30;;;;;;;1.47;0.63;;;14.40;99.90;;;;;;4968037;28;20217;-84
2023/07/11 13:27:06;;;;;;;0.60;0.60;;;14.50;99.90;;;;;;4964918;28;20230;-85